createdAt,value
2023-04-23T00:01:06.984Z,52.69
2023-04-23T00:03:36.478Z,53.36
2023-04-23T00:06:08.093Z,52.51
2023-04-23T00:08:35.418Z,52.14
2023-04-23T00:11:02.450Z,53.07
2023-04-23T00:13:29.415Z,52.54
2023-04-23T00:15:56.305Z,51.69
2023-04-23T00:18:22.956Z,52.72
2023-04-23T00:20:49.635Z,51.24
2023-04-23T00:23:16.357Z,51.25
2023-04-23T00:25:43.156Z,51.64
2023-04-23T00:28:09.939Z,51.37
2023-04-23T00:30:36.540Z,51.82
2023-04-23T00:33:03.319Z,51.21
2023-04-23T00:35:30.014Z,52.83
2023-04-23T00:37:56.789Z,53.70
2023-04-23T00:40:23.714Z,54.92
2023-04-23T00:42:52.215Z,55.39
2023-04-23T00:45:19.097Z,54.96
2023-04-23T00:47:46.995Z,55.28
2023-04-23T00:50:13.754Z,56.17
2023-04-23T00:52:40.863Z,55.95
2023-04-23T00:55:09.008Z,56.98
2023-04-23T00:57:39.449Z,55.98
2023-04-23T01:00:07.987Z,56.40
2023-04-23T01:02:36.788Z,56.43
2023-04-23T01:05:05.113Z,55.83
2023-04-23T01:07:34.397Z,55.88
2023-04-23T01:10:01.219Z,56.29
2023-04-23T01:12:27.949Z,55.59
2023-04-23T01:14:54.712Z,56.49
2023-04-23T01:17:22.964Z,55.61
2023-04-23T01:19:49.899Z,55.42
2023-04-23T01:22:17.079Z,54.83
2023-04-23T01:24:43.954Z,55.33
2023-04-23T01:27:11.339Z,55.65
2023-04-23T01:29:39.052Z,56.62
2023-04-23T01:32:07.685Z,58.80
2023-04-23T01:34:38.712Z,58.77
2023-04-23T01:37:06.028Z,58.87
2023-04-23T01:39:33.500Z,58.68
2023-04-23T01:42:01.400Z,58.61
2023-04-23T01:44:28.355Z,60.12
2023-04-23T01:46:55.178Z,60.52
2023-04-23T01:49:21.829Z,59.86
2023-04-23T01:51:48.963Z,58.26
2023-04-23T01:54:15.566Z,59.93
2023-04-23T01:56:42.313Z,58.95
2023-04-23T01:59:08.977Z,58.82
2023-04-23T02:01:46.081Z,59.17
2023-04-23T02:04:14.654Z,60.18
2023-04-23T02:06:44.304Z,60.29
2023-04-23T02:09:11.890Z,63.95
2023-04-23T02:11:38.806Z,61.42
2023-04-23T02:14:06.674Z,61.36
2023-04-23T02:16:34.665Z,63.29
2023-04-23T02:19:01.966Z,62.66
2023-04-23T02:21:29.766Z,63.42
2023-04-23T02:23:56.460Z,62.88
2023-04-23T02:26:23.752Z,62.56
2023-04-23T02:28:50.986Z,63.36
2023-04-23T02:31:17.963Z,64.07
2023-04-23T02:33:44.848Z,65.13
2023-04-23T02:36:12.711Z,62.73
2023-04-23T02:38:44.694Z,62.55
2023-04-23T02:41:12.319Z,64.00
2023-04-23T02:43:38.999Z,64.45
2023-04-23T02:46:08.621Z,65.50
2023-04-23T02:48:41.703Z,64.00
2023-04-23T02:51:11.100Z,65.56
2023-04-23T02:53:37.861Z,64.44
2023-04-23T02:56:04.629Z,64.84
2023-04-23T02:58:32.025Z,66.74
2023-04-23T03:01:01.356Z,68.70
2023-04-23T03:03:32.173Z,69.88
2023-04-23T03:06:01.969Z,70.85
2023-04-23T03:08:28.750Z,69.13
2023-04-23T03:10:55.537Z,70.51
2023-04-23T03:13:22.565Z,71.17
2023-04-23T03:15:50.720Z,71.81
2023-04-23T03:18:18.019Z,72.48
2023-04-23T03:20:47.865Z,71.68
2023-04-23T03:23:14.891Z,71.37
2023-04-23T03:25:41.560Z,72.88
2023-04-23T03:28:08.285Z,71.89
2023-04-23T03:30:35.099Z,70.46
2023-04-23T03:33:02.741Z,72.41
2023-04-23T03:35:29.730Z,73.68
2023-04-23T03:37:59.136Z,74.04
2023-04-23T03:40:25.927Z,72.73
2023-04-23T03:42:58.030Z,72.76
2023-04-23T03:45:39.140Z,72.55
2023-04-23T03:48:05.898Z,71.49
2023-04-23T03:50:34.506Z,71.15
2023-04-23T03:53:11.369Z,71.94
2023-04-23T03:55:56.880Z,72.31
2023-04-23T03:58:24.466Z,71.36
2023-04-23T04:00:52.351Z,71.24
2023-04-23T04:03:19.261Z,71.46
2023-04-23T04:05:46.357Z,71.91
2023-04-23T04:08:13.231Z,73.22
2023-04-23T04:10:40.954Z,71.64
2023-04-23T04:13:07.712Z,72.41
2023-04-23T04:15:34.321Z,70.90
2023-04-23T04:18:01.297Z,72.48
2023-04-23T04:20:30.743Z,73.00
2023-04-23T04:22:57.428Z,72.00
2023-04-23T04:25:24.492Z,71.46
2023-04-23T04:27:51.250Z,71.96
2023-04-23T04:30:18.736Z,73.51
2023-04-23T04:32:46.301Z,74.21
2023-04-23T04:35:14.515Z,74.97
2023-04-23T04:37:41.936Z,75.90
2023-04-23T04:40:09.917Z,76.08
2023-04-23T04:42:37.312Z,76.13
2023-04-23T04:45:04.624Z,75.87
2023-04-23T04:47:32.755Z,77.04
2023-04-23T04:50:00.525Z,78.19
2023-04-23T04:52:27.718Z,78.00
2023-04-23T04:54:54.365Z,77.76
2023-04-23T04:57:22.870Z,77.17
2023-04-23T04:59:50.410Z,78.14
2023-04-23T05:02:17.161Z,77.00
2023-04-23T05:04:44.198Z,77.56
2023-04-23T05:07:11.166Z,77.96
2023-04-23T05:09:39.262Z,77.04
2023-04-23T05:12:07.446Z,76.76
2023-04-23T05:14:34.251Z,76.25
2023-04-23T05:17:01.180Z,75.92
2023-04-23T05:19:27.961Z,73.74
2023-04-23T05:21:54.711Z,74.06
2023-04-23T05:24:21.366Z,75.24
2023-04-23T05:26:48.654Z,74.08
2023-04-23T05:29:19.226Z,73.70
2023-04-23T05:31:46.683Z,73.00
2023-04-23T05:34:13.667Z,72.67
2023-04-23T05:36:51.468Z,72.90
2023-04-23T05:39:18.169Z,73.77
2023-04-23T05:41:53.424Z,74.21
2023-04-23T05:44:24.551Z,75.11
2023-04-23T05:46:52.351Z,74.37
2023-04-23T05:49:21.554Z,72.44
2023-04-23T05:51:51.844Z,73.31
2023-04-23T05:54:36.994Z,72.27
2023-04-23T05:57:05.163Z,72.41
2023-04-23T05:59:32.067Z,73.85
2023-04-23T06:01:58.744Z,72.78
2023-04-23T06:04:25.594Z,74.80
2023-04-23T06:06:56.077Z,75.49
2023-04-23T06:09:23.218Z,75.76
2023-04-23T06:11:52.194Z,75.20
2023-04-23T06:14:18.899Z,77.65
2023-04-23T06:16:45.633Z,78.21
2023-04-23T06:19:12.810Z,79.00
2023-04-23T06:21:42.560Z,79.15
2023-04-23T06:24:12.619Z,78.57
2023-04-23T06:26:39.420Z,79.18
2023-04-23T06:29:13.635Z,80.12
2023-04-23T06:31:51.152Z,80.61
2023-04-23T06:34:21.003Z,79.60
2023-04-23T06:36:47.832Z,80.05
2023-04-23T06:39:14.499Z,78.34
2023-04-23T06:41:41.164Z,76.89
2023-04-23T06:44:21.798Z,75.50
2023-04-23T06:46:54.390Z,74.69
2023-04-23T06:49:21.205Z,73.76
2023-04-23T06:51:48.304Z,73.15
2023-04-23T06:54:15.069Z,75.09
2023-04-23T06:56:42.691Z,74.40
2023-04-23T06:59:09.374Z,74.30
2023-04-23T07:01:43.966Z,73.93
2023-04-23T07:04:10.915Z,73.28
2023-04-23T07:06:43.154Z,74.27
2023-04-23T07:09:09.858Z,74.52
2023-04-23T07:11:37.080Z,75.74
2023-04-23T07:14:04.395Z,76.03
2023-04-23T07:16:33.716Z,75.73
2023-04-23T07:19:02.287Z,74.34
2023-04-23T07:21:29.277Z,75.40
2023-04-23T07:23:58.174Z,76.42
2023-04-23T07:26:25.470Z,76.05
2023-04-23T07:28:52.885Z,77.13
2023-04-23T07:31:23.971Z,77.18
2023-04-23T07:33:50.712Z,77.31
2023-04-23T07:36:17.280Z,76.43
2023-04-23T07:38:45.089Z,77.61
2023-04-23T07:41:11.832Z,77.71
2023-04-23T07:43:39.107Z,78.25
2023-04-23T07:46:07.600Z,77.70
2023-04-23T07:48:34.874Z,78.27
2023-04-23T07:51:02.418Z,77.72
2023-04-23T07:53:29.132Z,77.40
2023-04-23T07:55:56.604Z,78.68
2023-04-23T07:58:24.987Z,79.52
2023-04-23T08:00:52.118Z,79.04
2023-04-23T08:03:19.282Z,77.45
2023-04-23T08:05:46.315Z,78.46
2023-04-23T08:08:13.227Z,77.03
2023-04-23T08:10:40.430Z,77.82
2023-04-23T08:13:07.698Z,76.95
2023-04-23T08:15:34.403Z,78.41
2023-04-23T08:18:01.627Z,78.07
2023-04-23T08:20:28.445Z,77.79
2023-04-23T08:22:55.763Z,78.82
2023-04-23T08:25:22.690Z,79.35
2023-04-23T08:27:50.039Z,79.13
2023-04-23T08:30:16.880Z,79.43
2023-04-23T08:32:43.636Z,80.55
2023-04-23T08:35:10.517Z,78.15
2023-04-23T08:37:39.109Z,78.15
2023-04-23T08:40:07.782Z,77.48
2023-04-23T08:43:20.516Z,77.85
2023-04-23T08:45:49.311Z,77.26
2023-04-23T08:48:16.846Z,77.00
2023-04-23T08:50:44.883Z,76.22
2023-04-23T08:53:18.070Z,77.77
2023-04-23T08:55:45.912Z,76.22
2023-04-23T08:58:13.287Z,77.30
2023-04-23T09:00:40.884Z,77.02
2023-04-23T09:03:08.918Z,76.65
2023-04-23T09:05:40.366Z,76.25
2023-04-23T09:08:07.317Z,76.27
2023-04-23T09:10:37.438Z,75.93
2023-04-23T09:13:04.218Z,75.79
2023-04-23T09:15:31.403Z,75.24
2023-04-23T09:18:00.837Z,75.12
2023-04-23T09:20:27.705Z,76.76
2023-04-23T09:22:54.367Z,76.34
2023-04-23T09:25:23.430Z,76.85
2023-04-23T09:27:52.238Z,75.48
2023-04-23T09:30:20.059Z,75.47
2023-04-23T09:32:47.635Z,74.58
2023-04-23T09:35:17.106Z,74.24
2023-04-23T09:37:49.440Z,73.78
2023-04-23T09:40:20.121Z,74.85
2023-04-23T09:42:55.984Z,74.26
2023-04-23T09:45:25.698Z,73.90
2023-04-23T09:47:58.448Z,73.78
2023-04-23T09:50:36.995Z,74.19
2023-04-23T09:53:08.128Z,74.91
2023-04-23T09:55:38.816Z,74.54
2023-04-23T09:58:15.939Z,74.83
2023-04-23T10:00:43.258Z,74.76
2023-04-23T10:03:13.399Z,74.94
2023-04-23T10:05:59.664Z,74.45
2023-04-23T10:08:28.476Z,73.75
2023-04-23T10:11:09.626Z,74.06
2023-04-23T10:13:41.462Z,72.38
2023-04-23T10:16:21.696Z,73.09
2023-04-23T10:18:52.267Z,73.84
2023-04-23T10:21:20.245Z,74.81
2023-04-23T10:23:50.081Z,75.28
2023-04-23T10:26:20.321Z,73.72
2023-04-23T10:28:48.646Z,74.04
2023-04-23T10:31:16.000Z,74.10
2023-04-23T10:33:56.070Z,75.10
2023-04-23T10:36:27.710Z,74.33
2023-04-23T10:38:59.220Z,73.69
2023-04-23T10:41:35.138Z,73.62
2023-04-23T10:44:03.634Z,74.05
2023-04-23T10:46:36.447Z,73.83
2023-04-23T10:49:15.508Z,72.74
2023-04-23T10:54:19.641Z,75.31
2023-04-23T10:56:46.483Z,75.44
2023-04-23T10:59:20.681Z,75.70
2023-04-23T11:01:48.767Z,74.04
2023-04-23T11:04:23.430Z,75.00
2023-04-23T11:06:55.411Z,74.84
2023-04-23T11:09:46.856Z,74.51
2023-04-23T11:12:32.772Z,73.76
2023-04-23T11:15:00.344Z,73.80
2023-04-23T11:17:33.208Z,74.37
2023-04-23T11:20:20.342Z,73.64
2023-04-23T11:22:49.341Z,74.40
2023-04-23T11:25:30.698Z,74.43
2023-04-23T11:28:01.515Z,76.53
2023-04-23T11:30:32.152Z,76.83
2023-04-23T11:33:01.367Z,77.70
2023-04-23T11:35:29.573Z,77.14
2023-04-23T11:37:57.087Z,77.99
2023-04-23T11:40:24.350Z,77.06
2023-04-23T11:42:53.771Z,78.28
2023-04-23T11:45:23.847Z,77.95
2023-04-23T11:47:59.396Z,78.88
2023-04-23T11:50:33.172Z,79.50
2023-04-23T11:53:09.280Z,77.15
2023-04-23T11:55:36.477Z,76.47
2023-04-23T11:58:03.583Z,76.93
2023-04-23T12:00:30.357Z,75.52
2023-04-23T12:02:58.548Z,77.28
2023-04-23T12:05:30.535Z,76.53
2023-04-23T12:08:23.345Z,75.54
2023-04-23T12:10:54.980Z,76.64
2023-04-23T12:13:24.543Z,77.01
2023-04-23T12:16:00.564Z,76.08
2023-04-23T12:18:30.463Z,76.63
2023-04-23T12:21:05.775Z,76.46
2023-04-23T12:23:33.783Z,75.79
2023-04-23T12:26:00.422Z,76.36
2023-04-23T12:28:27.708Z,77.02
2023-04-23T12:31:01.129Z,75.87
2023-04-23T12:33:31.500Z,77.67
2023-04-23T12:35:58.306Z,78.52
2023-04-23T12:38:25.952Z,79.26
2023-04-23T12:40:59.615Z,77.58
2023-04-23T12:43:26.969Z,78.02
2023-04-23T12:45:56.977Z,77.29
2023-04-23T12:48:23.850Z,76.66
2023-04-23T12:50:50.724Z,78.17
2023-04-23T12:53:18.303Z,78.86
2023-04-23T12:55:46.010Z,79.36
2023-04-23T12:58:13.008Z,78.09
2023-04-23T13:00:39.667Z,77.96
2023-04-23T13:03:06.430Z,78.71
2023-04-23T13:05:33.182Z,78.87
2023-04-23T13:08:02.675Z,79.71
2023-04-23T13:10:30.927Z,79.74
2023-04-23T13:13:00.521Z,79.15
2023-04-23T13:15:27.343Z,79.13
2023-04-23T13:17:54.021Z,80.34
2023-04-23T13:20:21.334Z,80.72
2023-04-23T13:22:47.999Z,79.97
2023-04-23T13:25:14.754Z,80.04
2023-04-23T13:27:41.471Z,79.80
2023-04-23T13:30:08.805Z,78.50
2023-04-23T13:32:35.506Z,77.72
2023-04-23T13:35:05.072Z,78.80
2023-04-23T13:37:32.086Z,78.94
2023-04-23T13:39:58.804Z,78.40
2023-04-23T13:42:25.644Z,76.54
2023-04-23T13:44:52.586Z,76.88
2023-04-23T13:47:19.403Z,75.36
2023-04-23T13:49:46.042Z,75.12
2023-04-23T13:52:12.665Z,74.17
2023-04-23T13:54:39.936Z,74.04
2023-04-23T13:57:06.889Z,73.84
2023-04-23T13:59:33.577Z,72.86
2023-04-23T14:02:00.292Z,73.14
2023-04-23T14:04:27.233Z,73.78
2023-04-23T14:06:54.005Z,72.90
2023-04-23T14:09:22.397Z,73.30
2023-04-23T14:11:49.650Z,73.36
2023-04-23T14:14:16.683Z,73.61
2023-04-23T14:16:43.868Z,72.73
2023-04-23T14:19:14.149Z,72.62
2023-04-23T14:21:41.684Z,72.55
2023-04-23T14:24:22.814Z,72.35
2023-04-23T14:26:50.302Z,71.59
2023-04-23T14:29:23.028Z,72.61
2023-04-23T14:31:50.151Z,72.46
2023-04-23T14:34:16.806Z,72.89
2023-04-23T14:36:44.607Z,73.24
2023-04-23T14:39:20.045Z,73.81
2023-04-23T14:41:46.889Z,73.56
2023-04-23T14:44:13.757Z,72.78
2023-04-23T14:46:40.498Z,74.09
2023-04-23T14:49:07.396Z,74.85
2023-04-23T14:51:37.544Z,75.38
2023-04-23T14:54:04.996Z,74.43
2023-04-23T14:56:56.565Z,73.33
2023-04-23T14:59:23.728Z,74.29
2023-04-23T15:01:50.898Z,74.64
2023-04-23T15:04:17.865Z,74.78
2023-04-23T15:06:44.813Z,75.11
2023-04-23T15:09:13.723Z,76.50
2023-04-23T15:11:41.777Z,76.44
2023-04-23T15:14:23.229Z,76.23
2023-04-23T15:17:02.031Z,74.79
2023-04-23T15:19:31.046Z,74.66
2023-04-23T15:21:57.951Z,73.11
2023-04-23T15:24:24.808Z,72.94
2023-04-23T15:26:55.230Z,72.97
2023-04-23T15:29:25.044Z,72.97
2023-04-23T15:31:57.965Z,72.94
2023-04-23T15:34:25.017Z,74.60
2023-04-23T15:36:51.616Z,74.32
2023-04-23T15:39:18.300Z,75.47
2023-04-23T15:41:46.328Z,74.93
2023-04-23T15:44:13.541Z,76.25
2023-04-23T15:46:40.329Z,76.33
2023-04-23T15:49:09.254Z,75.86
2023-04-23T15:51:46.753Z,76.32
2023-04-23T15:54:15.127Z,75.78
2023-04-23T15:56:57.076Z,76.11
2023-04-23T15:59:30.869Z,75.76
2023-04-23T16:04:42.318Z,75.31
2023-04-23T16:07:12.040Z,75.38
2023-04-23T16:09:39.096Z,74.77
2023-04-23T16:12:07.043Z,73.84
2023-04-23T16:15:03.059Z,73.06
2023-04-23T16:17:33.976Z,72.17
2023-04-23T16:20:05.024Z,72.63
2023-04-23T16:22:31.943Z,73.10
2023-04-23T16:25:06.149Z,72.18
2023-04-23T16:27:39.259Z,72.57
2023-04-23T16:30:06.565Z,71.76
2023-04-23T16:32:35.053Z,71.40
2023-04-23T16:35:03.604Z,71.68
2023-04-23T16:37:30.845Z,71.74
2023-04-23T16:39:57.571Z,72.23
2023-04-23T16:42:24.278Z,71.38
2023-04-23T16:44:51.085Z,70.52
2023-04-23T16:47:18.139Z,71.05
2023-04-23T16:49:44.890Z,70.30
2023-04-23T16:52:11.572Z,70.39
2023-04-23T16:54:38.337Z,70.67
2023-04-23T16:57:06.982Z,70.34
2023-04-23T16:59:33.865Z,70.88
2023-04-23T17:02:00.889Z,71.06
2023-04-23T17:04:27.759Z,70.30
2023-04-23T17:06:54.649Z,70.54
2023-04-23T17:09:21.572Z,70.67
2023-04-23T17:11:48.301Z,70.74
2023-04-23T17:14:19.509Z,70.48
2023-04-23T17:16:46.834Z,70.48
2023-04-23T17:19:13.449Z,69.82
2023-04-23T17:21:40.390Z,70.28
2023-04-23T17:24:07.617Z,70.23
2023-04-23T17:26:34.537Z,70.27
2023-04-23T17:29:01.421Z,70.00
2023-04-23T17:31:28.798Z,69.80
2023-04-23T17:33:56.441Z,69.47
2023-04-23T17:36:23.274Z,69.55
2023-04-23T17:38:50.024Z,68.72
2023-04-23T17:41:17.698Z,68.94
2023-04-23T17:43:44.814Z,69.18
2023-04-23T17:46:11.572Z,69.04
2023-04-23T17:48:38.386Z,69.30
2023-04-23T17:51:05.114Z,69.38
2023-04-23T17:53:31.991Z,69.33
2023-04-23T17:56:02.773Z,69.47
2023-04-23T17:58:30.653Z,69.18
2023-04-23T18:00:57.517Z,69.19
2023-04-23T18:03:24.905Z,68.55
2023-04-23T18:05:52.210Z,68.55
2023-04-23T18:08:20.991Z,68.93
2023-04-23T18:10:47.950Z,69.07
2023-04-23T18:13:15.013Z,69.04
2023-04-23T18:15:42.496Z,69.77
2023-04-23T18:18:09.604Z,70.15
2023-04-23T18:20:38.590Z,70.66
2023-04-23T18:23:06.798Z,70.02
2023-04-23T18:25:33.721Z,70.61
2023-04-23T18:28:00.528Z,70.57
2023-04-23T18:30:27.458Z,70.79
2023-04-23T18:33:08.859Z,70.97
2023-04-23T18:35:35.841Z,70.70
2023-04-23T18:38:11.141Z,70.69
2023-04-23T18:40:37.937Z,71.19
2023-04-23T18:43:04.680Z,71.40
2023-04-23T18:45:31.515Z,71.39
2023-04-23T18:48:04.272Z,71.19
2023-04-23T18:50:38.365Z,70.80
2023-04-23T18:53:05.272Z,71.11
2023-04-23T18:55:31.948Z,70.26
2023-04-23T18:57:58.997Z,70.61
2023-04-23T19:00:25.855Z,69.96
2023-04-23T19:02:52.708Z,69.83
2023-04-23T19:05:19.970Z,69.99
2023-04-23T19:07:48.383Z,69.31
2023-04-23T19:10:16.426Z,69.63
2023-04-23T19:12:44.064Z,69.67
2023-04-23T19:15:11.569Z,70.12
2023-04-23T19:17:38.668Z,69.71
2023-04-23T19:20:09.351Z,68.67
2023-04-23T19:22:36.055Z,69.17
2023-04-23T19:25:02.827Z,68.91
2023-04-23T19:27:29.540Z,68.48
2023-04-23T19:29:56.697Z,69.00
2023-04-23T19:32:23.367Z,69.14
2023-04-23T19:34:50.009Z,69.08
2023-04-23T19:37:16.790Z,68.12
2023-04-23T19:39:43.750Z,68.23
2023-04-23T19:42:10.872Z,68.59
2023-04-23T19:44:40.127Z,68.74
2023-04-23T19:47:06.886Z,69.11
2023-04-23T19:49:33.651Z,69.15
2023-04-23T19:52:03.292Z,69.09
2023-04-23T19:54:30.035Z,69.38
2023-04-23T19:56:56.734Z,69.29
2023-04-23T19:59:23.857Z,68.84
2023-04-23T20:01:51.282Z,68.66
2023-04-23T20:04:18.010Z,68.49
2023-04-23T20:06:44.815Z,67.49
2023-04-23T20:09:18.212Z,67.47
2023-04-23T20:11:46.055Z,68.12
2023-04-23T20:14:13.617Z,67.63
2023-04-23T20:16:41.301Z,67.64
2023-04-23T20:19:11.160Z,67.56
2023-04-23T20:21:39.111Z,67.55
2023-04-23T20:24:07.623Z,68.09
2023-04-23T20:26:35.481Z,68.03
2023-04-23T20:29:02.694Z,68.58
2023-04-23T20:31:29.519Z,68.42
2023-04-23T20:33:56.490Z,68.92
2023-04-23T20:36:28.906Z,68.44
2023-04-23T20:38:59.008Z,68.32
2023-04-23T20:41:30.344Z,68.24
2023-04-23T20:43:58.885Z,68.37
2023-04-23T20:46:26.388Z,68.72
2023-04-23T20:48:55.187Z,69.07
2023-04-23T20:51:23.228Z,68.69
2023-04-23T20:53:51.413Z,68.37
2023-04-23T20:56:18.763Z,68.42
2023-04-23T20:58:46.169Z,68.46
2023-04-23T21:01:12.828Z,68.20
2023-04-23T21:03:40.868Z,68.08
2023-04-23T21:06:09.477Z,68.62
2023-04-23T21:08:38.935Z,68.23
2023-04-23T21:11:09.980Z,68.67
2023-04-23T21:13:37.961Z,68.91
2023-04-23T21:16:04.733Z,68.35
2023-04-23T21:18:31.755Z,68.07
2023-04-23T21:20:58.408Z,68.05
2023-04-23T21:23:25.280Z,68.17
2023-04-23T21:25:52.259Z,67.79
2023-04-23T21:28:19.467Z,68.44
2023-04-23T21:30:50.863Z,68.58
2023-04-23T21:33:19.265Z,69.48
2023-04-23T21:35:46.532Z,69.90
2023-04-23T21:38:13.372Z,68.76
2023-04-23T21:40:40.617Z,68.26
2023-04-23T21:43:07.953Z,68.23
2023-04-23T21:45:34.662Z,68.31
2023-04-23T21:48:02.030Z,67.25
2023-04-23T21:50:31.135Z,67.42
2023-04-23T21:52:58.542Z,67.73
2023-04-23T21:55:27.009Z,68.01
2023-04-23T21:57:56.431Z,68.11
2023-04-23T22:00:28.264Z,68.16
2023-04-23T22:02:55.915Z,69.35
2023-04-23T22:05:24.065Z,69.56
2023-04-23T22:07:55.383Z,69.75
2023-04-23T22:10:23.841Z,70.96
2023-04-23T22:12:50.860Z,71.45
2023-04-23T22:15:19.093Z,70.92
2023-04-23T22:17:50.310Z,70.42
2023-04-23T22:20:19.163Z,70.42
2023-04-23T22:22:46.420Z,69.73
2023-04-23T22:25:13.533Z,71.85
2023-04-23T22:27:41.636Z,72.84
2023-04-23T22:30:10.485Z,73.54
2023-04-23T22:32:38.516Z,72.51
2023-04-23T22:35:07.206Z,72.47
2023-04-23T22:37:35.256Z,72.47
2023-04-23T22:40:04.004Z,72.47
2023-04-23T22:42:31.146Z,72.29
2023-04-23T22:44:58.104Z,72.67
2023-04-23T22:47:25.164Z,72.06
2023-04-23T22:49:51.999Z,71.93
2023-04-23T22:52:19.049Z,71.85
2023-04-23T22:54:46.504Z,71.39
2023-04-23T22:57:13.193Z,71.55
2023-04-23T22:59:40.182Z,71.02
2023-04-23T23:02:07.716Z,71.11
2023-04-23T23:04:37.743Z,70.29
2023-04-23T23:07:08.489Z,70.62
2023-04-23T23:09:35.486Z,69.65
2023-04-23T23:12:03.640Z,70.03
2023-04-23T23:14:31.747Z,70.13
2023-04-23T23:16:58.863Z,70.43
2023-04-23T23:19:31.006Z,70.69
2023-04-23T23:21:57.690Z,70.76
2023-04-23T23:24:24.427Z,70.76
2023-04-23T23:26:51.179Z,70.73
2023-04-23T23:29:17.943Z,70.98
2023-04-23T23:31:44.967Z,71.27
2023-04-23T23:34:12.054Z,71.11
2023-04-23T23:36:38.725Z,72.80
2023-04-23T23:39:06.649Z,73.31
2023-04-23T23:41:33.650Z,73.59
2023-04-23T23:44:00.275Z,72.26
2023-04-23T23:46:27.121Z,71.26
2023-04-23T23:48:54.452Z,70.46
2023-04-23T23:51:21.318Z,71.44
2023-04-23T23:53:48.000Z,71.26
2023-04-23T23:56:14.703Z,70.38
2023-04-23T23:58:41.297Z,71.22
